Time;durP1;ratioP1;P1;durP2;ratioP2;P2;SDS_P1;SDS_P2;PMS_P1;PMS_P2;Temp;Humidity;BMP_temperature;BMP_pressure;BME280_temperature;BME280_humidity;BME280_pressure;Samples;Min_cycle;Max_cycle;Signal;HPM_P1;HPM_P2
2021/10/23 00:02:13;;;;;;;270.87;254.50;;;9.70;99.90;;;;;;5041632;28;20161;-82
2021/10/23 00:04:39;;;;;;;287.17;269.57;;;9.60;99.90;;;;;;5042090;28;20161;-82
2021/10/23 00:07:06;;;;;;;308.00;289.67;;;9.60;99.90;;;;;;5041889;28;20161;-83
2021/10/23 00:09:32;;;;;;;277.45;260.92;;;9.60;99.90;;;;;;5042697;28;20611;-83
2021/10/23 00:11:57;;;;;;;317.17;299.13;;;9.60;99.90;;;;;;5045260;28;20169;-82
2021/10/23 00:14:23;;;;;;;293.57;276.03;;;9.50;99.90;;;;;;5041673;28;20407;-82
2021/10/23 00:16:49;;;;;;;332.20;313.87;;;9.60;99.90;;;;;;5041535;28;20177;-82
2021/10/23 00:19:14;;;;;;;360.60;340.63;;;9.60;99.90;;;;;;5041325;28;20185;-82
2021/10/23 00:21:40;;;;;;;285.23;267.70;;;9.60;99.90;;;;;;5041424;28;20201;-82
2021/10/23 00:24:06;;;;;;;259.67;243.60;;;9.60;99.90;;;;;;5044488;28;20176;-82
2021/10/23 00:26:31;;;;;;;280.53;263.73;;;9.60;99.90;;;;;;5045246;28;20162;-82
2021/10/23 00:28:57;;;;;;;292.03;274.57;;;9.60;99.90;;;;;;5178452;23;20224;-82
2021/10/23 00:31:23;;;;;;;285.33;268.00;;;9.60;99.90;;;;;;5039129;28;20176;-81
2021/10/23 00:33:49;;;;;;;294.80;276.85;;;9.60;99.90;;;;;;5041511;28;20166;-80
2021/10/23 00:36:15;;;;;;;308.20;289.50;;;9.60;99.90;;;;;;5038707;28;20165;-83
2021/10/23 00:38:40;;;;;;;304.00;286.37;;;9.60;99.90;;;;;;5036857;28;20242;-83
2021/10/23 00:41:06;;;;;;;246.57;230.17;;;9.60;99.90;;;;;;5035477;28;20244;-83
2021/10/23 00:43:36;;;;;;;278.70;262.13;;;9.60;99.90;;;;;;5037222;28;20165;-83
2021/10/23 00:46:02;;;;;;;273.20;255.73;;;9.60;99.90;;;;;;5036121;28;20166;-82
2021/10/23 00:48:28;;;;;;;289.67;272.60;;;9.60;99.90;;;;;;5035546;28;20604;-83
2021/10/23 00:50:54;;;;;;;258.97;242.03;;;9.60;99.90;;;;;;5037551;28;20196;-82
2021/10/23 00:53:21;;;;;;;302.00;284.30;;;9.70;99.90;;;;;;5037273;28;20177;-82
2021/10/23 00:55:47;;;;;;;245.98;229.80;;;9.60;99.90;;;;;;5035373;28;20419;-82
2021/10/23 00:58:13;;;;;;;250.77;234.73;;;9.60;99.90;;;;;;5035619;28;20189;-82
2021/10/23 01:00:39;;;;;;;271.00;254.73;;;9.60;99.90;;;;;;5035684;28;20443;-82
2021/10/23 01:03:05;;;;;;;264.20;247.57;;;9.60;99.90;;;;;;5034547;28;20165;-82
2021/10/23 01:05:31;;;;;;;277.38;260.08;;;9.60;99.90;;;;;;5037059;28;20163;-82
2021/10/23 01:07:58;;;;;;;241.07;224.90;;;9.60;99.90;;;;;;5036553;28;20220;-82
2021/10/23 01:10:24;;;;;;;342.60;323.55;;;9.60;99.90;;;;;;5035644;28;20177;-82
2021/10/23 01:12:50;;;;;;;317.63;299.30;;;9.60;99.90;;;;;;5036813;28;20157;-82
2021/10/23 01:15:21;;;;;;;315.63;297.27;;;9.70;99.90;;;;;;5036750;28;20227;-82
2021/10/23 01:17:48;;;;;;;292.58;274.70;;;9.70;99.90;;;;;;5036490;28;20648;-82
2021/10/23 01:20:14;;;;;;;284.58;267.48;;;9.70;99.90;;;;;;5036101;28;20212;-82
2021/10/23 01:22:40;;;;;;;298.83;280.95;;;9.70;99.90;;;;;;5036825;28;20621;-82
2021/10/23 01:25:07;;;;;;;316.63;298.07;;;9.60;99.90;;;;;;5034657;28;20173;-82
2021/10/23 01:27:33;;;;;;;279.08;262.05;;;9.60;99.90;;;;;;5034652;28;20803;-83
2021/10/23 01:29:59;;;;;;;302.60;284.52;;;9.60;99.90;;;;;;5036661;28;20316;-83
2021/10/23 01:32:24;;;;;;;292.10;274.57;;;9.60;99.90;;;;;;5035073;28;20652;-83
2021/10/23 01:34:50;;;;;;;295.83;277.80;;;9.60;99.90;;;;;;5037019;28;20165;-82
2021/10/23 01:37:15;;;;;;;278.30;261.37;;;9.60;99.90;;;;;;5037984;28;20633;-83
2021/10/23 01:39:41;;;;;;;244.90;228.77;;;9.60;99.90;;;;;;5039253;28;20165;-83
2021/10/23 01:42:07;;;;;;;267.33;250.33;;;9.50;99.90;;;;;;5037328;28;20695;-83
2021/10/23 01:44:34;;;;;;;268.13;251.50;;;9.60;99.90;;;;;;5039486;28;20702;-83
2021/10/23 01:47:01;;;;;;;252.88;236.68;;;9.60;99.90;;;;;;5036423;28;20161;-82
2021/10/23 01:49:27;;;;;;;265.83;249.18;;;9.50;99.90;;;;;;5036636;28;20260;-82
2021/10/23 01:51:52;;;;;;;256.90;240.33;;;9.60;99.90;;;;;;5035449;28;20611;-82
2021/10/23 01:54:18;;;;;;;259.03;242.67;;;9.60;99.90;;;;;;5035847;28;20563;-80
2021/10/23 01:56:45;;;;;;;270.13;253.47;;;9.60;99.90;;;;;;5035854;28;20641;-82
2021/10/23 01:59:10;;;;;;;264.05;247.32;;;9.60;99.90;;;;;;5036164;28;20196;-82
2021/10/23 02:01:36;;;;;;;258.73;242.40;;;9.50;99.90;;;;;;5035212;28;20193;-82
2021/10/23 02:04:02;;;;;;;284.90;266.83;;;9.50;99.90;;;;;;5034570;28;20416;-82
2021/10/23 02:06:28;;;;;;;306.25;287.90;;;9.50;99.90;;;;;;5036083;28;20161;-82
2021/10/23 02:08:54;;;;;;;286.57;269.00;;;9.50;99.90;;;;;;5035159;28;20537;-82
2021/10/23 02:11:20;;;;;;;312.45;294.35;;;9.40;99.90;;;;;;5034439;28;20946;-82
2021/10/23 02:13:46;;;;;;;280.30;263.03;;;9.40;99.90;;;;;;5034061;28;20173;-82
2021/10/23 02:16:12;;;;;;;299.60;281.08;;;9.30;99.90;;;;;;5038505;28;21125;-82
2021/10/23 02:18:41;;;;;;;286.15;268.65;;;9.30;99.90;;;;;;5040303;28;20189;-82
2021/10/23 02:21:08;;;;;;;275.80;258.08;;;9.30;99.90;;;;;;5040358;28;20257;-82
2021/10/23 02:23:35;;;;;;;268.58;251.73;;;9.30;99.90;;;;;;5038096;28;20237;-82
2021/10/23 02:26:01;;;;;;;280.83;263.75;;;9.30;99.90;;;;;;5040333;28;20668;-82
2021/10/23 02:28:27;;;;;;;243.75;227.45;;;9.30;99.90;;;;;;5039024;28;20192;-82
2021/10/23 02:30:52;;;;;;;250.93;233.87;;;9.30;99.90;;;;;;5038419;28;20177;-82
2021/10/23 02:33:18;;;;;;;253.33;236.97;;;9.30;99.90;;;;;;5038685;28;20165;-83
2021/10/23 02:35:44;;;;;;;228.50;213.00;;;9.30;99.90;;;;;;5039799;28;20192;-82
2021/10/23 02:38:10;;;;;;;263.23;246.47;;;9.30;99.90;;;;;;5038628;28;20196;-82
2021/10/23 02:40:37;;;;;;;252.48;236.02;;;9.40;99.90;;;;;;5039677;28;20192;-83
2021/10/23 02:43:03;;;;;;;219.43;203.40;;;9.30;99.90;;;;;;5037757;28;20544;-83
2021/10/23 02:45:29;;;;;;;235.40;219.45;;;9.30;99.90;;;;;;5039358;28;20168;-82
2021/10/23 02:47:55;;;;;;;251.50;234.80;;;9.30;99.90;;;;;;5039579;28;20181;-83
2021/10/23 02:50:21;;;;;;;221.77;206.40;;;9.30;99.90;;;;;;5039907;28;20211;-83
2021/10/23 02:52:46;;;;;;;230.97;215.00;;;9.30;99.90;;;;;;5040249;28;20203;-82
2021/10/23 02:55:15;;;;;;;226.67;211.13;;;9.30;99.90;;;;;;5038258;28;20215;-83
2021/10/23 02:57:41;;;;;;;249.70;232.43;;;9.30;99.90;;;;;;5039836;28;20554;-83
2021/10/23 03:00:08;;;;;;;251.03;234.00;;;9.40;99.90;;;;;;5037140;28;20235;-83
2021/10/23 03:02:34;;;;;;;219.32;203.38;;;9.30;99.90;;;;;;5038228;28;20660;-83
2021/10/23 03:05:02;;;;;;;220.77;204.97;;;9.30;99.90;;;;;;5037944;28;20173;-82
2021/10/23 03:07:29;;;;;;;256.52;240.07;;;9.30;99.90;;;;;;5038688;28;20416;-83
2021/10/23 03:09:55;;;;;;;237.48;221.20;;;9.20;99.90;;;;;;5039651;28;20161;-83
2021/10/23 03:12:20;;;;;;;272.20;255.00;;;9.20;99.90;;;;;;5038430;28;20540;-83
2021/10/23 03:14:46;;;;;;;276.43;257.37;;;9.20;99.90;;;;;;5037684;28;20165;-83
2021/10/23 03:17:12;;;;;;;270.10;252.60;;;9.20;99.90;;;;;;5039700;28;20169;-82
2021/10/23 03:19:37;;;;;;;270.23;253.13;;;9.10;99.90;;;;;;5039632;28;20196;-83
2021/10/23 03:22:03;;;;;;;278.63;261.23;;;9.10;99.90;;;;;;5037822;28;20246;-84
2021/10/23 03:24:29;;;;;;;287.13;269.30;;;9.10;99.90;;;;;;5039530;28;20652;-83
2021/10/23 03:26:54;;;;;;;238.73;222.23;;;9.10;99.90;;;;;;5038238;28;20165;-83
2021/10/23 03:29:20;;;;;;;231.40;214.93;;;9.10;99.90;;;;;;5040522;28;20197;-82
2021/10/23 03:31:47;;;;;;;212.20;197.02;;;9.00;99.90;;;;;;5039752;28;20201;-82
2021/10/23 03:34:13;;;;;;;237.67;221.57;;;9.00;99.90;;;;;;5040863;28;20180;-83
2021/10/23 03:36:39;;;;;;;222.13;206.33;;;9.00;99.90;;;;;;5038416;28;20216;-82
2021/10/23 03:39:05;;;;;;;214.43;198.50;;;9.10;99.90;;;;;;5038755;28;20502;-83
2021/10/23 03:41:31;;;;;;;207.68;192.57;;;9.00;99.90;;;;;;5039024;28;20189;-83
2021/10/23 03:43:56;;;;;;;234.20;218.37;;;9.10;99.90;;;;;;5038118;28;20694;-82
2021/10/23 03:46:22;;;;;;;249.37;232.57;;;9.10;99.90;;;;;;5037555;28;20177;-82
2021/10/23 03:48:48;;;;;;;220.30;204.00;;;9.20;99.90;;;;;;5037820;28;20335;-82
2021/10/23 03:51:14;;;;;;;194.50;179.40;;;9.20;99.90;;;;;;5039430;28;20521;-82
2021/10/23 03:53:39;;;;;;;221.83;205.33;;;9.30;99.90;;;;;;5038710;28;20221;-82
2021/10/23 03:56:05;;;;;;;209.33;193.07;;;9.30;99.90;;;;;;5038694;28;20423;-83
2021/10/23 03:58:31;;;;;;;260.07;242.20;;;9.20;99.90;;;;;;5039664;28;20235;-82
2021/10/23 04:00:56;;;;;;;243.57;226.27;;;9.20;99.90;;;;;;5043827;28;20620;-83
2021/10/23 04:03:22;;;;;;;209.67;193.87;;;9.20;99.90;;;;;;5042776;28;20196;-83
2021/10/23 04:05:48;;;;;;;208.47;193.27;;;9.20;99.90;;;;;;5038908;28;20207;-83
2021/10/23 04:08:14;;;;;;;215.57;200.23;;;9.20;99.90;;;;;;5037209;28;20196;-83
2021/10/23 04:10:39;;;;;;;232.43;216.53;;;9.20;99.90;;;;;;5038244;28;20161;-82
2021/10/23 04:13:05;;;;;;;195.17;180.47;;;9.20;99.90;;;;;;5036090;28;20541;-83
2021/10/23 04:15:33;;;;;;;194.40;178.93;;;9.20;99.90;;;;;;5038248;28;20415;-82
2021/10/23 04:17:59;;;;;;;213.32;197.93;;;9.10;99.90;;;;;;5038059;28;20210;-83
2021/10/23 04:20:25;;;;;;;195.98;181.30;;;9.10;99.90;;;;;;5038098;28;20525;-83
2021/10/23 04:22:51;;;;;;;226.27;210.40;;;9.10;99.90;;;;;;5038219;28;20535;-83
2021/10/23 04:25:17;;;;;;;234.07;217.60;;;9.00;99.90;;;;;;5038139;28;20158;-82
2021/10/23 04:27:43;;;;;;;223.20;207.27;;;9.00;99.90;;;;;;5038205;28;20477;-82
2021/10/23 04:30:09;;;;;;;256.20;238.68;;;8.90;99.90;;;;;;5038002;28;20572;-83
2021/10/23 04:32:35;;;;;;;249.52;232.38;;;9.00;99.90;;;;;;5038059;28;20161;-82
2021/10/23 04:35:01;;;;;;;211.67;196.10;;;9.00;99.90;;;;;;5037805;28;20492;-82
2021/10/23 04:37:27;;;;;;;225.20;208.43;;;9.10;99.90;;;;;;5036580;28;20168;-83
2021/10/23 04:39:52;;;;;;;224.40;208.53;;;9.10;99.90;;;;;;5036722;28;20416;-83
2021/10/23 04:42:18;;;;;;;282.23;263.70;;;9.10;99.90;;;;;;5036798;28;20392;-83
2021/10/23 04:44:44;;;;;;;226.90;210.80;;;9.10;99.90;;;;;;5035384;28;20180;-82
2021/10/23 04:47:09;;;;;;;235.17;219.10;;;9.20;99.90;;;;;;5036543;28;20196;-82
2021/10/23 04:49:35;;;;;;;249.93;232.80;;;9.20;99.90;;;;;;5035542;28;20169;-82
2021/10/23 04:52:01;;;;;;;247.10;230.43;;;9.20;99.90;;;;;;5037259;28;20628;-83
2021/10/23 04:54:26;;;;;;;259.03;241.00;;;9.20;99.90;;;;;;5036145;28;20200;-82
2021/10/23 04:56:52;;;;;;;232.20;215.63;;;9.30;99.90;;;;;;5037886;28;20200;-82
2021/10/23 04:59:18;;;;;;;223.43;207.73;;;9.30;99.90;;;;;;5037363;28;20192;-83
2021/10/23 05:01:43;;;;;;;250.60;233.33;;;9.30;99.90;;;;;;5037229;28;20197;-83
2021/10/23 05:04:09;;;;;;;244.77;227.93;;;9.30;99.90;;;;;;5036084;28;20641;-83
2021/10/23 05:06:35;;;;;;;235.77;219.63;;;9.30;99.90;;;;;;5035676;28;20532;-83
2021/10/23 05:09:00;;;;;;;198.23;182.80;;;9.30;99.90;;;;;;5037313;28;20185;-82
2021/10/23 05:11:26;;;;;;;241.03;223.67;;;9.40;99.90;;;;;;5035696;28;20197;-83
2021/10/23 05:13:52;;;;;;;208.40;191.83;;;9.40;99.90;;;;;;5037709;28;20192;-82
2021/10/23 05:16:17;;;;;;;229.70;213.40;;;9.40;99.90;;;;;;5037311;28;20173;-82
2021/10/23 05:18:48;;;;;;;220.27;204.27;;;9.40;99.90;;;;;;5035931;28;20192;-82
2021/10/23 05:21:14;;;;;;;235.35;219.20;;;9.40;99.90;;;;;;5036431;28;20271;-83
2021/10/23 05:23:39;;;;;;;242.17;224.57;;;9.30;99.90;;;;;;5037087;28;20223;-82
2021/10/23 05:26:05;;;;;;;237.47;220.50;;;9.30;99.90;;;;;;5036521;28;20184;-82
2021/10/23 05:28:31;;;;;;;234.53;217.87;;;9.40;99.90;;;;;;5035005;28;20427;-82
2021/10/23 05:30:56;;;;;;;226.17;209.67;;;9.40;99.90;;;;;;5035724;28;20674;-82
2021/10/23 05:33:22;;;;;;;209.07;193.13;;;9.40;99.90;;;;;;5035634;28;20207;-82
2021/10/23 05:35:48;;;;;;;271.90;254.10;;;9.40;99.90;;;;;;5036173;28;20162;-83
2021/10/23 05:38:13;;;;;;;223.60;207.40;;;9.40;99.90;;;;;;5036056;28;20185;-83
2021/10/23 05:40:39;;;;;;;261.13;243.97;;;9.50;99.90;;;;;;5034753;28;20197;-83
2021/10/23 05:43:05;;;;;;;228.13;211.63;;;9.50;99.90;;;;;;5035885;28;20161;-83
2021/10/23 05:45:30;;;;;;;217.60;201.67;;;9.50;99.90;;;;;;5036173;28;20169;-83
2021/10/23 05:47:56;;;;;;;228.90;212.30;;;9.40;99.90;;;;;;5036295;28;20626;-83
2021/10/23 05:50:22;;;;;;;200.57;185.37;;;9.30;99.90;;;;;;5036638;28;20204;-82
2021/10/23 05:52:47;;;;;;;210.30;194.23;;;9.40;99.90;;;;;;5036664;28;20219;-83
2021/10/23 05:55:13;;;;;;;206.40;191.00;;;9.30;99.90;;;;;;5037411;28;20702;-83
2021/10/23 05:57:38;;;;;;;201.43;186.40;;;9.30;99.90;;;;;;5037993;28;20195;-83
2021/10/23 06:00:10;;;;;;;226.37;210.33;;;9.20;99.90;;;;;;5037222;28;20248;-83
2021/10/23 06:02:37;;;;;;;200.23;185.38;;;9.10;99.90;;;;;;5036207;28;20172;-83
2021/10/23 06:05:04;;;;;;;205.68;190.45;;;9.20;99.90;;;;;;5037296;28;20157;-83
2021/10/23 06:07:32;;;;;;;219.00;202.85;;;9.10;99.90;;;;;;5037520;28;20208;-83
2021/10/23 06:09:59;;;;;;;188.68;174.13;;;9.10;99.90;;;;;;5037200;28;20525;-83
2021/10/23 06:12:25;;;;;;;238.82;222.13;;;9.10;99.90;;;;;;5037353;28;20169;-83
2021/10/23 06:14:52;;;;;;;190.52;175.85;;;9.10;99.90;;;;;;5036601;28;20162;-82
2021/10/23 06:17:18;;;;;;;204.45;188.95;;;9.10;99.90;;;;;;5037319;28;20657;-82
2021/10/23 06:19:43;;;;;;;199.20;184.57;;;9.10;99.90;;;;;;5036991;28;20248;-82
2021/10/23 06:22:09;;;;;;;215.07;199.20;;;9.10;99.90;;;;;;5035911;28;20501;-83
2021/10/23 06:24:35;;;;;;;202.67;187.53;;;9.10;99.90;;;;;;5035226;28;20181;-82
2021/10/23 06:27:01;;;;;;;236.80;219.93;;;9.20;99.90;;;;;;5036001;28;20165;-83
2021/10/23 06:29:27;;;;;;;225.35;210.05;;;9.20;99.90;;;;;;5103192;22;20244;-79
2021/10/23 06:31:53;;;;;;;230.30;213.82;;;9.20;99.90;;;;;;5035358;28;20263;-80
2021/10/23 06:34:19;;;;;;;222.60;207.13;;;9.20;99.90;;;;;;5036219;28;20166;-79
2021/10/23 06:36:44;;;;;;;233.03;216.73;;;9.30;99.90;;;;;;5036241;28;20248;-79
2021/10/23 06:39:10;;;;;;;225.40;209.57;;;9.30;99.90;;;;;;5035776;28;20228;-79
2021/10/23 06:41:36;;;;;;;255.23;238.73;;;9.30;99.90;;;;;;5035692;28;20672;-79
2021/10/23 06:44:03;;;;;;;223.40;207.67;;;9.40;99.90;;;;;;5035868;28;20555;-80
2021/10/23 06:46:30;;;;;;;256.25;239.75;;;9.50;99.90;;;;;;5035445;28;20176;-79
2021/10/23 06:48:56;;;;;;;210.15;194.80;;;9.50;99.90;;;;;;5018350;28;20537;-79
2021/10/23 06:51:21;;;;;;;172.70;158.87;;;9.50;99.90;;;;;;5035681;28;20199;-80
2021/10/23 06:53:47;;;;;;;219.43;203.67;;;9.50;99.90;;;;;;5036117;28;20459;-79
2021/10/23 06:56:12;;;;;;;211.57;196.30;;;9.50;99.90;;;;;;5035737;28;20169;-79
2021/10/23 06:58:38;;;;;;;231.40;215.43;;;9.50;99.90;;;;;;5035411;28;20736;-79
2021/10/23 07:01:05;;;;;;;225.27;210.00;;;9.60;99.90;;;;;;5020372;28;20603;-79
2021/10/23 07:03:31;;;;;;;214.52;199.45;;;9.60;99.90;;;;;;5022202;28;20170;-79
2021/10/23 07:05:57;;;;;;;242.13;226.10;;;9.60;99.90;;;;;;5039880;28;20158;-79
2021/10/23 07:08:23;;;;;;;240.73;223.82;;;9.60;99.90;;;;;;5039787;28;20236;-79
2021/10/23 07:10:48;;;;;;;203.97;189.17;;;9.60;99.90;;;;;;5021884;28;20608;-79
2021/10/23 07:13:14;;;;;;;218.93;203.53;;;9.70;99.90;;;;;;5022433;28;20367;-79
2021/10/23 07:15:40;;;;;;;218.20;201.53;;;9.70;99.90;;;;;;5039153;28;20411;-79
2021/10/23 07:18:05;;;;;;;238.00;222.10;;;9.70;99.90;;;;;;5039885;28;20193;-79
2021/10/23 07:20:36;;;;;;;237.70;221.73;;;9.70;99.90;;;;;;5040590;28;20185;-79
2021/10/23 07:23:02;;;;;;;214.98;199.23;;;9.80;99.90;;;;;;5039701;28;20152;-80
2021/10/23 07:25:28;;;;;;;236.88;220.60;;;9.80;99.90;;;;;;5021726;28;20192;-80
2021/10/23 07:27:53;;;;;;;243.30;226.43;;;9.80;99.90;;;;;;5040115;28;20579;-80
2021/10/23 07:30:19;;;;;;;229.07;212.97;;;9.80;99.90;;;;;;5021922;28;20184;-80
2021/10/23 07:32:45;;;;;;;291.57;273.40;;;9.80;99.90;;;;;;5040463;28;20404;-80
2021/10/23 07:35:11;;;;;;;239.17;223.03;;;9.90;99.90;;;;;;5039965;28;20252;-80
2021/10/23 07:37:41;;;;;;;257.48;239.60;;;10.00;99.90;;;;;;5022119;28;20220;-80
2021/10/23 07:40:10;;;;;;;216.20;200.88;;;10.10;99.90;;;;;;5039831;28;20161;-80
2021/10/23 07:42:37;;;;;;;225.30;209.60;;;10.10;99.90;;;;;;5039965;28;20176;-80
2021/10/23 07:45:05;;;;;;;230.80;214.77;;;10.20;99.90;;;;;;5039639;28;20184;-80
2021/10/23 07:47:30;;;;;;;229.98;214.07;;;10.30;99.90;;;;;;5021302;28;20189;-79
2021/10/23 07:49:57;;;;;;;215.20;199.20;;;10.40;99.90;;;;;;5022170;28;20161;-80
2021/10/23 07:52:23;;;;;;;239.95;223.80;;;10.40;99.90;;;;;;5039327;28;20552;-80
2021/10/23 07:54:48;;;;;;;261.90;244.93;;;10.50;99.90;;;;;;5039378;28;20164;-79
2021/10/23 07:57:15;;;;;;;245.50;228.77;;;10.50;99.90;;;;;;5039676;28;20168;-79
2021/10/23 07:59:41;;;;;;;267.73;250.73;;;10.60;99.90;;;;;;5021979;28;20197;-80
2021/10/23 08:02:07;;;;;;;323.43;303.87;;;10.50;99.90;;;;;;5039290;28;20204;-80
2021/10/23 08:04:33;;;;;;;308.73;290.05;;;10.50;99.90;;;;;;5039300;28;20157;-80
2021/10/23 08:07:00;;;;;;;312.70;294.42;;;10.70;99.90;;;;;;5021227;28;20180;-80
2021/10/23 08:09:27;;;;;;;298.88;280.48;;;10.70;99.90;;;;;;5039530;28;20185;-80
2021/10/23 08:11:53;;;;;;;313.58;294.70;;;10.70;99.90;;;;;;5021156;28;20177;-80
2021/10/23 08:14:18;;;;;;;327.97;308.93;;;10.70;99.90;;;;;;5021494;28;20252;-80
2021/10/23 08:16:44;;;;;;;265.83;248.53;;;10.80;99.90;;;;;;5039016;28;20176;-80
2021/10/23 08:19:10;;;;;;;283.03;265.37;;;10.90;99.90;;;;;;5038957;28;20425;-80
2021/10/23 08:21:39;;;;;;;272.60;254.97;;;10.90;99.90;;;;;;5021907;28;20314;-80
2021/10/23 08:24:06;;;;;;;260.75;243.13;;;10.90;99.90;;;;;;5039100;28;20614;-80
2021/10/23 08:26:32;;;;;;;263.48;245.95;;;11.00;99.90;;;;;;5039122;28;20169;-80
2021/10/23 08:28:57;;;;;;;214.40;198.97;;;11.00;99.90;;;;;;5039070;28;20193;-80
2021/10/23 08:31:23;;;;;;;165.73;152.07;;;11.10;99.90;;;;;;5038834;28;20153;-79
2021/10/23 08:33:50;;;;;;;209.77;194.15;;;11.10;99.90;;;;;;5020833;28;20546;-80
2021/10/23 08:36:16;;;;;;;155.52;142.10;;;11.10;99.90;;;;;;5039117;28;20244;-80
2021/10/23 08:38:42;;;;;;;107.20;95.90;;;11.20;99.90;;;;;;5021027;28;20227;-80
2021/10/23 08:41:11;;;;;;;93.63;69.47;;;11.30;99.90;;;;;;5038244;28;20189;-79
2021/10/23 08:43:37;;;;;;;104.78;74.90;;;11.40;99.90;;;;;;5038164;28;20169;-80
2021/10/23 08:46:05;;;;;;;94.75;63.90;;;11.50;99.90;;;;;;5004107;28;20175;-80
2021/10/23 08:48:31;;;;;;;100.47;86.80;;;11.60;99.90;;;;;;5037935;28;20718;-80
2021/10/23 08:51:00;;;;;;;95.85;73.90;;;11.60;99.90;;;;;;5038041;28;20244;-79
2021/10/23 08:53:30;;;;;;;115.93;104.22;;;11.50;99.90;;;;;;5020504;28;20709;-80
2021/10/23 08:55:57;;;;;;;124.22;112.10;;;11.60;99.90;;;;;;5020217;28;20251;-80
2021/10/23 08:58:22;;;;;;;117.43;105.45;;;11.70;99.90;;;;;;5038390;28;20193;-80
2021/10/23 09:00:48;;;;;;;145.83;132.83;;;11.80;99.90;;;;;;5037667;28;20636;-80
2021/10/23 09:03:14;;;;;;;151.33;138.30;;;11.80;99.90;;;;;;5037646;28;20161;-80
2021/10/23 09:05:41;;;;;;;144.80;131.65;;;11.80;99.90;;;;;;5038401;28;20209;-80
2021/10/23 09:08:17;;;;;;;128.57;116.45;;;11.90;99.90;;;;;;5037596;28;20215;-80
2021/10/23 09:10:50;;;;;;;112.28;100.53;;;12.00;99.90;;;;;;5038075;28;20148;-80
2021/10/23 09:13:29;;;;;;;111.68;99.72;;;12.10;99.90;;;;;;5037366;28;20641;-80
2021/10/23 09:15:56;;;;;;;89.78;50.42;;;12.10;99.90;;;;;;5019543;28;20169;-80
2021/10/23 09:18:44;;;;;;;75.55;23.83;;;12.30;99.90;;;;;;5037436;28;20188;-80
2021/10/23 09:21:21;;;;;;;87.00;42.33;;;12.40;99.90;;;;;;5037731;28;20544;-80
2021/10/23 09:24:22;;;;;;;110.72;98.78;;;12.30;99.90;;;;;;5037235;28;20184;-80
2021/10/23 09:26:50;;;;;;;99.88;83.93;;;12.30;99.90;;;;;;5037433;28;20557;-80
2021/10/23 09:29:23;;;;;;;84.07;36.28;;;12.50;99.90;;;;;;5037189;28;20216;-80
2021/10/23 09:31:53;;;;;;;78.53;21.23;;;12.50;99.90;;;;;;5037309;28;20176;-80
2021/10/23 09:34:23;;;;;;;77.10;28.48;;;12.50;99.90;;;;;;5020006;28;20161;-80
2021/10/23 09:36:54;;;;;;;80.95;34.90;;;12.40;99.90;;;;;;5037393;28;20634;-80
2021/10/23 09:39:30;;;;;;;83.43;34.85;;;12.30;99.90;;;;;;5037255;28;20208;-80
2021/10/23 09:42:15;;;;;;;87.03;38.13;;;12.30;99.90;;;;;;5037018;28;20196;-80
2021/10/23 09:45:05;;;;;;;80.32;29.50;;;12.30;99.90;;;;;;5036596;28;20161;-80
2021/10/23 09:47:45;;;;;;;87.95;45.53;;;12.30;99.90;;;;;;5019333;28;20677;-80
2021/10/23 09:50:14;;;;;;;83.97;44.22;;;12.40;99.90;;;;;;5036814;28;20675;-80
2021/10/23 09:53:05;;;;;;;94.55;69.47;;;12.40;99.90;;;;;;5019307;28;20252;-80
2021/10/23 09:55:35;;;;;;;88.88;58.85;;;12.40;99.90;;;;;;5019227;28;20264;-80
2021/10/23 09:58:06;;;;;;;82.88;41.60;;;12.30;99.90;;;;;;5018626;28;20189;-79
2021/10/23 10:00:32;;;;;;;84.20;41.85;;;12.40;99.90;;;;;;5036695;28;20554;-80
2021/10/23 10:03:00;;;;;;;88.25;52.40;;;12.50;99.90;;;;;;5036515;28;20163;-80
2021/10/23 10:05:26;;;;;;;93.63;63.88;;;12.50;99.90;;;;;;5036385;28;20169;-80
2021/10/23 10:07:53;;;;;;;96.97;82.93;;;12.50;99.90;;;;;;5036675;28;20196;-80
2021/10/23 10:10:18;;;;;;;100.07;87.90;;;12.50;99.90;;;;;;5036550;28;20229;-80
2021/10/23 10:12:45;;;;;;;95.43;74.73;;;12.70;99.90;;;;;;5036967;28;20200;-80
2021/10/23 10:15:11;;;;;;;103.43;92.43;;;12.80;99.90;;;;;;5019204;28;20177;-80
2021/10/23 10:17:39;;;;;;;92.03;69.13;;;12.90;99.90;;;;;;5036873;28;20420;-80
2021/10/23 10:20:09;;;;;;;93.22;38.42;;;13.00;99.90;;;;;;5036425;28;20498;-80
2021/10/23 10:22:36;;;;;;;80.60;27.40;;;13.00;99.90;;;;;;5018460;28;20173;-80
2021/10/23 10:25:22;;;;;;;77.40;30.00;;;12.90;99.90;;;;;;5036502;28;20436;-80
2021/10/23 10:27:48;;;;;;;85.40;35.07;;;12.80;99.90;;;;;;5036412;28;20193;-80
2021/10/23 10:30:30;;;;;;;81.87;33.73;;;12.70;99.90;;;;;;5036319;28;20416;-80
2021/10/23 10:33:24;;;;;;;78.57;24.57;;;12.80;99.90;;;;;;5019617;28;20411;-80
2021/10/23 10:44:07;;;;;;;77.83;20.57;;;13.30;99.90;;;;;;5040507;28;20392;-80
2021/10/23 10:47:03;;;;;;;73.70;21.00;;;13.30;99.90;;;;;;5022513;28;20430;-80
2021/10/23 10:49:53;;;;;;;79.80;21.50;;;13.30;99.90;;;;;;5033672;28;20431;-79
2021/10/23 10:52:41;;;;;;;80.87;36.07;;;13.10;99.90;;;;;;5022540;28;20458;-80
2021/10/23 10:55:17;;;;;;;80.77;33.87;;;13.00;99.90;;;;;;5021974;28;20434;-80
2021/10/23 10:58:06;;;;;;;81.93;40.33;;;13.10;99.90;;;;;;5039515;28;20430;-79
2021/10/23 11:00:46;;;;;;;81.03;28.73;;;13.20;99.90;;;;;;5039776;28;20435;-80
2021/10/23 11:03:38;;;;;;;72.43;17.60;;;13.20;99.90;;;;;;5022318;28;20954;-80
2021/10/23 11:06:34;;;;;;;76.17;18.17;;;13.20;99.90;;;;;;5039501;28;20483;-80
2021/10/23 11:09:12;;;;;;;79.10;25.57;;;13.10;99.90;;;;;;5039827;28;20420;-79
2021/10/23 11:11:44;;;;;;;77.47;28.07;;;13.20;99.90;;;;;;5039849;28;20404;-79
2021/10/23 11:14:23;;;;;;;78.30;25.87;;;13.10;99.90;;;;;;5039535;28;20408;-80
2021/10/23 11:16:54;;;;;;;75.03;23.00;;;13.20;99.90;;;;;;5021243;28;20444;-79
2021/10/23 11:19:34;;;;;;;74.10;20.57;;;13.00;99.90;;;;;;5039809;28;20260;-79
2021/10/23 11:22:07;;;;;;;77.57;24.17;;;13.10;99.90;;;;;;5021274;28;20465;-79
2021/10/23 11:24:39;;;;;;;74.80;16.60;;;13.00;99.90;;;;;;5039383;28;20610;-79
2021/10/23 11:27:05;;;;;;;74.83;15.60;;;13.00;99.90;;;;;;5039460;28;20408;-80
2021/10/23 11:29:31;;;;;;;78.10;16.30;;;13.00;99.90;;;;;;5021420;28;20493;-80
2021/10/23 11:31:58;;;;;;;75.87;15.57;;;13.10;99.90;;;;;;5038770;28;20915;-79
2021/10/23 11:34:28;;;;;;;72.07;14.77;;;12.90;99.90;;;;;;5039025;28;20403;-80
2021/10/23 11:37:10;;;;;;;72.70;14.97;;;13.00;99.90;;;;;;5038986;28;20406;-79
2021/10/23 11:39:38;;;;;;;70.65;14.68;;;13.00;99.90;;;;;;5021325;28;20766;-80
2021/10/23 11:42:27;;;;;;;70.90;12.90;;;13.10;99.90;;;;;;5039767;28;20235;-79
2021/10/23 11:44:54;;;;;;;72.18;11.13;;;13.20;99.90;;;;;;5021012;28;20408;-79
2021/10/23 11:47:27;;;;;;;71.17;12.73;;;13.20;99.90;;;;;;5038149;28;20172;-79
2021/10/23 11:49:59;;;;;;;73.27;14.17;;;13.20;99.90;;;;;;5038739;28;20407;-79
2021/10/23 11:52:26;;;;;;;75.23;14.63;;;13.30;99.90;;;;;;5038831;28;20400;-79
2021/10/23 11:54:53;;;;;;;70.77;10.93;;;13.40;99.90;;;;;;5038843;28;20403;-79
2021/10/23 11:57:41;;;;;;;69.50;9.40;;;13.50;99.90;;;;;;5038464;28;20412;-79
2021/10/23 12:00:31;;;;;;;69.67;9.53;;;13.50;99.90;;;;;;5038427;28;20404;-79
2021/10/23 12:02:59;;;;;;;72.23;12.30;;;13.70;99.90;;;;;;5020035;28;20467;-79
2021/10/23 12:05:40;;;;;;;71.57;15.20;;;13.80;99.90;;;;;;5038223;28;20904;-79
2021/10/23 12:08:27;;;;;;;71.67;11.70;;;13.80;99.90;;;;;;5037994;28;20420;-79
2021/10/23 12:11:04;;;;;;;71.67;9.40;;;13.80;99.90;;;;;;5037782;28;20406;-79
2021/10/23 12:13:41;;;;;;;70.10;14.57;;;13.90;99.90;;;;;;5038467;28;20407;-79
2021/10/23 12:16:08;;;;;;;69.77;11.60;;;13.90;99.90;;;;;;5038698;28;20867;-79
2021/10/23 12:18:34;;;;;;;74.50;10.93;;;13.90;99.90;;;;;;5037605;28;20440;-79
2021/10/23 12:21:21;;;;;;;82.30;22.90;;;13.90;99.90;;;;;;5038494;28;20444;-80
2021/10/23 12:23:46;;;;;;;76.50;13.80;;;13.90;99.90;;;;;;5038580;28;20955;-79
2021/10/23 12:26:14;;;;;;;75.27;13.90;;;14.00;99.90;;;;;;5038045;28;20428;-80
2021/10/23 12:31:32;;;;;;;78.30;16.53;;;14.10;99.90;;;;;;5612891;22;20651;-86
2021/10/23 12:34:55;;;;;;;71.93;14.60;;;14.10;99.90;;;;;;5038501;28;20633;-86
2021/10/23 12:37:58;;;;;;;76.73;17.50;;;14.20;99.90;;;;;;5022926;28;20412;-86
2021/10/23 12:41:04;;;;;;;;;;;;;;;;;;;;;